»·PEaware :: N49PW KAVX-KSAN

N49PW :: KAVX-KSAN

FLIGHT INFORMATION

Flight Status: Arrived
Operator: Privately registered:
United States
More flights under this callsign
Pilot: Bashar D. (27147)
Aircraft: CESSNA 172 SKYHAWK
(C172)
More flights by this aircraft type
Origin: KAVX Catalina
United States
Destination: KSAN San Diego Intl-Lindbergh
United States
More flights between these airports :: More routes between these airports
Route: +SXC V208 OCN V23 MZB
File this flight plan on PilotEdge
Remarks: I8 Rating
Altitude:
(Current/Filed)
5,000ft
Speed:
(Current/Filed)
120kts
Departed: 07-Feb-20 05:49 PM
Arrived: 07-Feb-20 07:35 PM
Distance/Time
Traveled:
74nm/1:46
Distance/Time
To Go:
Arrived

Flight Plot

Page will automatically refresh every two minutes.


Map Options




Map Legend


Flown Route
Filed Route
Departure Airport
Arrival Airport
Navaid (VOR, NDB)
Fix

Horizontal Profiles

Position Reports

Time Latitude Longitude Heading Altitude Ground
Speed
07-Feb-20 17:09 33.404377 -118.414724 262 1541ft 0kts
07-Feb-20 17:10 33.404377 -118.414724 262 1541ft 0kts
07-Feb-20 17:11 33.404377 -118.414724 262 1541ft 0kts
07-Feb-20 17:13 33.404377 -118.414724 262 1541ft 0kts
07-Feb-20 17:14 33.404377 -118.414724 262 1541ft 0kts
07-Feb-20 17:15 33.404377 -118.414724 262 1541ft 0kts
07-Feb-20 17:16 33.404377 -118.414724 262 1541ft 0kts
07-Feb-20 17:17 33.404377 -118.414724 262 1541ft 0kts
07-Feb-20 17:18 33.404377 -118.414724 262 1541ft 0kts
07-Feb-20 17:19 33.404377 -118.414724 262 1541ft 0kts
07-Feb-20 17:20 33.404377 -118.414724 262 1541ft 0kts
07-Feb-20 17:21 33.404377 -118.414724 262 1541ft 0kts
07-Feb-20 17:22 33.404377 -118.414724 262 1541ft 0kts
07-Feb-20 17:23 33.404377 -118.414724 262 1541ft 0kts
07-Feb-20 17:24 33.404377 -118.414724 262 1541ft 0kts
07-Feb-20 17:25 33.404377 -118.414724 262 1541ft 0kts
07-Feb-20 17:26 33.404377 -118.414724 262 1541ft 0kts
07-Feb-20 17:27 33.404377 -118.414724 262 1541ft 0kts
07-Feb-20 17:28 33.404377 -118.414724 262 1541ft 0kts
07-Feb-20 17:29 33.404377 -118.414724 262 1541ft 0kts
07-Feb-20 17:29 33.404377 -118.414724 262 1541ft 0kts
07-Feb-20 17:31 33.404377 -118.414724 262 1541ft 0kts
07-Feb-20 17:32 33.404377 -118.414724 262 1541ft 0kts
07-Feb-20 17:33 33.404377 -118.414724 262 1541ft 0kts
07-Feb-20 17:33 33.404377 -118.414724 262 1541ft 0kts
07-Feb-20 17:35 33.404377 -118.414724 262 1541ft 0kts
07-Feb-20 17:36 33.404377 -118.414724 262 1541ft 0kts
07-Feb-20 17:36 33.404377 -118.414724 262 1541ft 0kts
07-Feb-20 17:37 33.404377 -118.414724 262 1541ft 0kts
07-Feb-20 17:39 33.404377 -118.414724 262 1541ft 0kts
07-Feb-20 17:39 33.404377 -118.414724 262 1541ft 0kts
07-Feb-20 17:40 33.404377 -118.414724 262 1541ft 0kts
07-Feb-20 17:41 33.404377 -118.414724 262 1541ft 0kts
07-Feb-20 17:42 33.404377 -118.414724 262 1541ft 0kts
07-Feb-20 17:43 33.404356 -118.414884 276 1542ft 0kts
07-Feb-20 17:44 33.406793 -118.411923 61 1505ft 3kts
07-Feb-20 17:45 33.407223 -118.411384 338 1499ft 0kts
07-Feb-20 17:46 33.407421 -118.411493 334 1499ft 0kts
07-Feb-20 17:47 33.407462 -118.411516 334 1499ft 0kts
07-Feb-20 17:48 33.406856 -118.412634 222 1512ft 43kts
07-Feb-20 17:49 33.398401 -118.428202 239 1898ft 95kts
07-Feb-20 17:50 33.387355 -118.448852 230 2291ft 114kts
07-Feb-20 17:51 33.372255 -118.471001 230 2501ft 116kts
07-Feb-20 17:52 33.357419 -118.489729 186 2972ft 108kts
07-Feb-20 17:53 33.355422 -118.472449 59 3372ft 108kts
07-Feb-20 17:54 33.366699 -118.453639 54 3825ft 106kts
07-Feb-20 17:55 33.374547 -118.431494 85 4309ft 104kts
07-Feb-20 17:56 33.373765 -118.408984 98 4770ft 101kts
07-Feb-20 17:57 33.370862 -118.386155 100 4997ft 117kts
07-Feb-20 17:58 33.367274 -118.359464 100 4997ft 117kts
07-Feb-20 17:59 33.363719 -118.330538 98 4997ft 118kts
07-Feb-20 18:00 33.359951 -118.301010 101 4997ft 118kts
07-Feb-20 18:01 33.355727 -118.271300 100 4997ft 118kts
07-Feb-20 18:02 33.351791 -118.241452 100 4997ft 118kts
07-Feb-20 18:03 33.347982 -118.212102 99 4997ft 118kts
07-Feb-20 18:04 33.344025 -118.182875 100 4997ft 118kts
07-Feb-20 18:05 33.340261 -118.153679 100 4997ft 118kts
07-Feb-20 18:06 33.336384 -118.124107 100 4997ft 118kts
07-Feb-20 18:07 33.332476 -118.095177 99 4997ft 118kts
07-Feb-20 18:08 33.328599 -118.066408 100 4997ft 118kts
07-Feb-20 18:09 33.324892 -118.037905 100 4997ft 118kts
07-Feb-20 18:10 33.321510 -118.012242 99 4997ft 118kts
07-Feb-20 18:11 33.317909 -117.986126 99 4997ft 118kts
07-Feb-20 18:12 33.314545 -117.960460 100 4997ft 118kts
07-Feb-20 18:13 33.311178 -117.934897 99 4997ft 118kts
07-Feb-20 18:14 33.307673 -117.909664 99 4997ft 118kts
07-Feb-20 18:15 33.304652 -117.886469 100 4997ft 118kts
07-Feb-20 18:16 33.301437 -117.862581 99 4997ft 118kts
07-Feb-20 18:17 33.298222 -117.839362 100 4997ft 118kts
07-Feb-20 18:18 33.294873 -117.813297 100 4997ft 118kts
07-Feb-20 18:19 33.292457 -117.795960 100 4997ft 118kts
07-Feb-20 18:20 33.289155 -117.771792 99 4997ft 118kts
07-Feb-20 18:21 33.285402 -117.743575 100 4997ft 118kts
07-Feb-20 18:22 33.281661 -117.716665 99 4997ft 118kts
07-Feb-20 18:23 33.278372 -117.691633 100 4997ft 118kts
07-Feb-20 18:24 33.275093 -117.668607 100 4997ft 118kts
07-Feb-20 18:25 33.272199 -117.646165 100 4996ft 118kts
07-Feb-20 18:26 33.269149 -117.624661 100 4997ft 118kts
07-Feb-20 18:27 33.266197 -117.603003 99 4997ft 118kts
07-Feb-20 18:28 33.262881 -117.578247 100 4996ft 118kts
07-Feb-20 18:29 33.259604 -117.555331 100 4999ft 118kts
07-Feb-20 18:30 33.256655 -117.532621 100 4999ft 118kts
07-Feb-20 18:31 33.253570 -117.511064 100 4999ft 118kts
07-Feb-20 18:32 33.250703 -117.490125 99 4999ft 118kts
07-Feb-20 18:33 33.247986 -117.469721 100 4999ft 118kts
07-Feb-20 18:34 33.244797 -117.447718 100 4999ft 118kts
07-Feb-20 18:35 33.241886 -117.425953 102 4999ft 118kts
07-Feb-20 18:36 33.225374 -117.411086 161 4999ft 116kts
07-Feb-20 18:37 33.202512 -117.401490 160 4999ft 116kts
07-Feb-20 18:38 33.183593 -117.393599 159 4999ft 116kts
07-Feb-20 18:39 33.165204 -117.385855 160 4999ft 116kts
07-Feb-20 18:40 33.147023 -117.378094 159 4999ft 116kts
07-Feb-20 18:41 33.128772 -117.370575 160 4999ft 116kts
07-Feb-20 18:42 33.110755 -117.362853 160 4999ft 116kts
07-Feb-20 18:43 33.093288 -117.355609 159 4999ft 116kts
07-Feb-20 18:44 33.076424 -117.348469 161 4999ft 116kts
07-Feb-20 18:45 33.060157 -117.341638 159 4999ft 117kts
07-Feb-20 18:46 33.043566 -117.334719 161 4999ft 117kts
07-Feb-20 18:47 33.026908 -117.327642 160 4999ft 117kts
07-Feb-20 18:48 33.008756 -117.320166 160 4999ft 116kts
07-Feb-20 18:49 32.991167 -117.312632 160 4999ft 117kts
07-Feb-20 18:50 32.974624 -117.305853 160 4999ft 116kts
07-Feb-20 18:51 32.958413 -117.298923 161 4999ft 117kts
07-Feb-20 18:52 32.942187 -117.292245 160 4999ft 117kts
07-Feb-20 18:53 32.924600 -117.284808 161 4999ft 117kts
07-Feb-20 18:54 32.904010 -117.276140 160 4999ft 117kts
07-Feb-20 18:55 32.880777 -117.266535 159 5000ft 117kts
07-Feb-20 18:56 32.859217 -117.257543 161 5000ft 117kts
07-Feb-20 18:57 32.835994 -117.247730 161 5000ft 117kts
07-Feb-20 18:58 32.821275 -117.232605 97 4998ft 118kts
07-Feb-20 18:59 32.820374 -117.211494 93 4909ft 124kts
07-Feb-20 19:00 32.819625 -117.191162 93 4890ft 120kts
07-Feb-20 19:01 32.818990 -117.170884 93 4890ft 119kts
07-Feb-20 19:02 32.818423 -117.151166 93 4890ft 119kts
07-Feb-20 19:03 32.817810 -117.130297 93 4890ft 119kts
07-Feb-20 19:04 32.817168 -117.108384 92 4890ft 119kts
07-Feb-20 19:05 32.816525 -117.086012 92 4890ft 119kts
07-Feb-20 19:06 32.817017 -117.063727 91 4889ft 119kts
07-Feb-20 19:07 32.817344 -117.036064 92 4890ft 119kts
07-Feb-20 19:08 32.809910 -117.010138 113 4890ft 118kts
07-Feb-20 19:09 32.800776 -116.991500 121 4890ft 117kts
07-Feb-20 19:10 32.791370 -116.972935 121 4890ft 117kts
07-Feb-20 19:11 32.781958 -116.954262 121 4890ft 117kts
07-Feb-20 19:12 32.772554 -116.935508 122 4890ft 117kts
07-Feb-20 19:13 32.762775 -116.916037 121 4890ft 117kts
07-Feb-20 19:14 32.752118 -116.894844 126 4888ft 117kts
07-Feb-20 19:15 32.733778 -116.889837 182 4890ft 117kts
07-Feb-20 19:16 32.714535 -116.891030 182 4679ft 128kts
07-Feb-20 19:17 32.695998 -116.892179 182 4269ft 103kts
07-Feb-20 19:18 32.683303 -116.900062 252 3839ft 91kts
07-Feb-20 19:19 32.681589 -116.916652 261 3694ft 75kts
07-Feb-20 19:20 32.679890 -116.936338 262 3692ft 103kts
07-Feb-20 19:21 32.676406 -116.957887 258 3623ft 115kts
07-Feb-20 19:23 32.676903 -116.979575 277 3488ft 98kts
07-Feb-20 19:24 32.680917 -117.000236 284 3131ft 111kts
07-Feb-20 19:25 32.686596 -117.022379 286 2705ft 116kts
07-Feb-20 19:26 32.695683 -117.043623 299 2271ft 118kts
07-Feb-20 19:27 32.703635 -117.066480 287 1829ft 117kts
07-Feb-20 19:28 32.709170 -117.088661 283 1752ft 93kts
07-Feb-20 19:29 32.713778 -117.108722 286 1294ft 89kts
07-Feb-20 19:30 32.717392 -117.124501 284 1106ft 73kts
07-Feb-20 19:31 32.721401 -117.141098 291 978ft 76kts
07-Feb-20 19:32 32.725388 -117.156541 281 614ft 68kts
07-Feb-20 19:33 32.729069 -117.171363 286 233ft 67kts
07-Feb-20 19:34 32.732186 -117.184203 286 16ft 60kts
07-Feb-20 19:35 32.734464 -117.191459 279 17ft 0kts
07-Feb-20 19:36 32.734464 -117.191459 279 17ft 0kts

Navigation Log

Ident Type
Flight plan parsing failed, navigation log unavailable